Time;durP1;ratioP1;P1;durP2;ratioP2;P2;SDS_P1;SDS_P2;PMS_P1;PMS_P2;Temp;Humidity;BMP_temperature;BMP_pressure;BME280_temperature;BME280_humidity;BME280_pressure;Samples;Min_cycle;Max_cycle;Signal;HPM_P1;HPM_P2
2022/06/08 00:01:17;;;;;;;;;1.00;1.00;;;;;;;;5034216;28;45554;-72
2022/06/08 00:03:47;;;;;;;;;1.00;1.00;;;;;;;;5039082;28;45361;-72
2022/06/08 00:06:14;;;;;;;;;2.00;2.00;;;;;;;;5021209;28;46393;-72
2022/06/08 00:08:39;;;;;;;;;5.67;5.67;;;;;;;;5039499;28;45376;-72
2022/06/08 00:11:04;;;;;;;;;1.00;1.00;;;;;;;;5039602;28;45325;-72
2022/06/08 00:13:30;;;;;;;;;3.00;1.25;;;;;;;;5039063;28;46507;-72
2022/06/08 00:15:55;;;;;;;;;1.00;1.00;;;;;;;;5039416;28;45395;-72
2022/06/08 00:18:20;;;;;;;;;1.00;1.00;;;;;;;;5038081;28;45996;-72
2022/06/08 00:20:46;;;;;;;;;2.00;0.75;;;;;;;;5039259;28;45505;-72
2022/06/08 00:23:11;;;;;;;;;1.00;1.00;;;;;;;;5039022;28;45624;-72
2022/06/08 00:25:36;;;;;;;;;2.00;0.25;;;;;;;;5038977;28;45464;-72
2022/06/08 00:28:02;;;;;;;;;1.00;0.75;;;;;;;;5039149;28;45511;-72
2022/06/08 00:30:27;;;;;;;;;0.00;0.00;;;;;;;;5039337;28;45323;-72
2022/06/08 00:32:55;;;;;;;;;0.75;0.75;;;;;;;;5038983;28;46147;-72
2022/06/08 00:35:20;;;;;;;;;0.00;0.00;;;;;;;;5038828;28;45273;-72
2022/06/08 00:37:48;;;;;;;;;0.00;0.00;;;;;;;;5038873;28;45339;-72
2022/06/08 00:40:15;;;;;;;;;1.00;0.00;;;;;;;;5039230;28;45444;-72
2022/06/08 00:42:41;;;;;;;;;1.00;1.00;;;;;;;;5038631;28;46685;-72
2022/06/08 00:45:12;;;;;;;;;0.00;0.00;;;;;;;;5038626;28;45489;-72
2022/06/08 00:47:44;;;;;;;;;1.00;1.00;;;;;;;;5039103;28;45403;-72
2022/06/08 00:50:09;;;;;;;;;0.25;0.00;;;;;;;;5038951;28;45279;-72
2022/06/08 00:52:34;;;;;;;;;0.50;0.00;;;;;;;;5038501;28;45735;-72
2022/06/08 00:55:02;;;;;;;;;2.00;0.75;;;;;;;;5038548;28;45412;-72
2022/06/08 00:57:31;;;;;;;;;3.50;1.00;;;;;;;;5038414;28;45497;-72
2022/06/08 01:00:05;;;;;;;;;1.00;1.00;;;;;;;;5020841;28;45591;-72
2022/06/08 01:02:31;;;;;;;;;0.25;0.25;;;;;;;;5038344;28;46336;-72
2022/06/08 01:05:15;;;;;;;;;1.00;1.00;;;;;;;;5038524;28;45287;-72
2022/06/08 01:07:40;;;;;;;;;3.00;1.00;;;;;;;;5038286;28;45338;-73
2022/06/08 01:10:06;;;;;;;;;1.00;1.00;;;;;;;;5038644;28;45454;-72
2022/06/08 01:12:32;;;;;;;;;1.25;0.75;;;;;;;;5038310;28;45494;-72
2022/06/08 01:14:57;;;;;;;;;2.00;2.00;;;;;;;;5038458;28;45421;-72
2022/06/08 01:17:22;;;;;;;;;1.25;1.25;;;;;;;;5038403;28;45498;-72
2022/06/08 01:19:48;;;;;;;;;2.67;1.67;;;;;;;;5038439;28;45332;-72
2022/06/08 01:22:15;;;;;;;;;1.50;1.50;;;;;;;;5038103;28;46436;-72
2022/06/08 01:24:45;;;;;;;;;1.00;1.00;;;;;;;;5038053;28;45318;-72
2022/06/08 01:27:22;;;;;;;;;2.25;2.25;;;;;;;;5037488;28;45354;-72
2022/06/08 01:30:05;;;;;;;;;2.50;2.00;;;;;;;;5037922;28;45465;-72
2022/06/08 01:32:30;;;;;;;;;2.00;1.75;;;;;;;;5037981;28;45483;-72
2022/06/08 01:35:16;;;;;;;;;2.00;2.00;;;;;;;;5038039;28;45457;-72
2022/06/08 01:37:47;;;;;;;;;4.00;3.25;;;;;;;;5037433;28;45356;-72
2022/06/08 01:40:13;;;;;;;;;3.25;3.00;;;;;;;;5038218;28;45320;-72
2022/06/08 01:42:47;;;;;;;;;6.00;3.00;;;;;;;;5037785;28;46348;-72
2022/06/08 01:45:33;;;;;;;;;3.67;2.33;;;;;;;;5037569;28;45278;-72
2022/06/08 01:47:58;;;;;;;;;2.25;2.25;;;;;;;;5037871;28;45207;-72
2022/06/08 01:50:30;;;;;;;;;3.25;2.25;;;;;;;;5038196;28;45195;-73
2022/06/08 01:53:00;;;;;;;;;2.00;2.00;;;;;;;;5037384;28;47368;-72
2022/06/08 01:55:28;;;;;;;;;3.75;3.75;;;;;;;;5037624;28;45389;-73
2022/06/08 01:58:02;;;;;;;;;4.75;4.00;;;;;;;;5037592;28;45240;-72
2022/06/08 02:00:34;;;;;;;;;3.00;3.00;;;;;;;;5037969;28;45369;-72
2022/06/08 02:03:06;;;;;;;;;3.00;3.00;;;;;;;;5037416;28;45557;-72
2022/06/08 02:05:40;;;;;;;;;4.75;3.75;;;;;;;;5037501;28;45392;-73
2022/06/08 02:08:09;;;;;;;;;2.75;2.75;;;;;;;;5037604;28;45487;-73
2022/06/08 02:11:04;;;;;;;;;4.00;3.25;;;;;;;;5037541;28;45717;-72
2022/06/08 02:13:33;;;;;;;;;3.00;2.67;;;;;;;;5032157;28;47149;-73
2022/06/08 02:16:05;;;;;;;;;4.67;3.00;;;;;;;;5037147;28;45427;-73
2022/06/08 02:18:33;;;;;;;;;2.75;2.75;;;;;;;;5037402;28;45404;-73
2022/06/08 02:21:06;;;;;;;;;6.00;4.00;;;;;;;;5037376;28;45561;-72
2022/06/08 02:23:57;;;;;;;;;5.00;4.00;;;;;;;;5037081;28;45678;-72
2022/06/08 02:26:31;;;;;;;;;4.75;4.50;;;;;;;;5014979;28;45452;-72
2022/06/08 02:28:59;;;;;;;;;3.75;3.75;;;;;;;;5015222;28;45577;-72
2022/06/08 02:31:33;;;;;;;;;6.00;4.33;;;;;;;;5015423;28;45477;-72
2022/06/08 02:34:29;;;;;;;;;5.00;3.00;;;;;;;;5015017;28;45276;-72
2022/06/08 02:37:06;;;;;;;;;4.50;4.50;;;;;;;;5014955;28;45496;-72
2022/06/08 02:39:36;;;;;;;;;3.00;3.00;;;;;;;;5015218;28;45601;-72
2022/06/08 02:42:05;;;;;;;;;3.00;3.00;;;;;;;;5017198;28;45511;-72
2022/06/08 02:44:32;;;;;;;;;9.67;3.33;;;;;;;;5018434;28;46312;-72
2022/06/08 02:47:10;;;;;;;;;7.00;3.00;;;;;;;;5018550;28;45381;-71
2022/06/08 02:49:39;;;;;;;;;3.50;3.00;;;;;;;;5018611;28;45383;-72
2022/06/08 02:52:10;;;;;;;;;6.67;5.00;;;;;;;;5018515;28;45499;-71
2022/06/08 02:54:36;;;;;;;;;8.67;8.67;;;;;;;;5018235;28;46343;-72
2022/06/08 02:57:13;;;;;;;;;7.67;6.00;;;;;;;;5005585;28;45502;-72
2022/06/08 02:59:40;;;;;;;;;4.00;4.00;;;;;;;;4998514;28;45517;-72
2022/06/08 03:02:11;;;;;;;;;5.75;4.00;;;;;;;;4998647;28;45415;-72
2022/06/08 03:04:48;;;;;;;;;3.00;2.67;;;;;;;;5019498;28;46680;-71
2022/06/08 03:07:19;;;;;;;;;4.25;3.00;;;;;;;;5017105;28;45394;-71
2022/06/08 03:09:45;;;;;;;;;4.50;3.50;;;;;;;;5019971;28;45381;-72
2022/06/08 03:12:33;;;;;;;;;3.00;2.25;;;;;;;;5020386;28;45433;-72
2022/06/08 03:15:00;;;;;;;;;2.33;2.33;;;;;;;;4978250;28;46386;-71
2022/06/08 03:17:27;;;;;;;;;2.00;2.00;;;;;;;;4978254;28;45360;-72
2022/06/08 03:19:53;;;;;;;;;5.00;4.00;;;;;;;;4978675;28;45453;-72
2022/06/08 03:22:19;;;;;;;;;3.50;3.50;;;;;;;;4978518;28;45466;-73
2022/06/08 03:24:45;;;;;;;;;3.00;3.00;;;;;;;;4978450;28;46511;-73
2022/06/08 03:27:11;;;;;;;;;3.00;3.00;;;;;;;;4978278;28;45455;-72
2022/06/08 03:29:37;;;;;;;;;5.00;4.33;;;;;;;;4978592;28;45308;-73
2022/06/08 03:32:02;;;;;;;;;2.00;2.00;;;;;;;;4978838;28;45339;-72
2022/06/08 03:34:27;;;;;;;;;2.50;2.00;;;;;;;;4978235;28;45639;-73
2022/06/08 03:36:53;;;;;;;;;2.75;2.75;;;;;;;;4978148;28;45307;-73
2022/06/08 03:39:18;;;;;;;;;2.50;2.50;;;;;;;;4978292;28;45605;-72
2022/06/08 03:41:44;;;;;;;;;2.25;2.25;;;;;;;;4978675;28;45382;-73
2022/06/08 03:44:09;;;;;;;;;5.00;5.00;;;;;;;;4978203;28;46361;-73
2022/06/08 03:46:36;;;;;;;;;2.25;2.00;;;;;;;;4978233;28;45342;-73
2022/06/08 03:49:02;;;;;;;;;3.75;3.00;;;;;;;;4978425;28;45382;-73
2022/06/08 03:51:28;;;;;;;;;4.75;2.00;;;;;;;;4989987;28;45418;-72
2022/06/08 03:53:55;;;;;;;;;0.50;0.50;;;;;;;;5019383;28;46392;-72
2022/06/08 03:56:22;;;;;;;;;2.67;2.67;;;;;;;;5026123;28;45338;-72
2022/06/08 03:58:48;;;;;;;;;2.00;2.00;;;;;;;;5038793;28;45444;-72
2022/06/08 04:01:13;;;;;;;;;1.25;1.25;;;;;;;;5039829;28;45446;-72
2022/06/08 04:03:40;;;;;;;;;2.50;2.50;;;;;;;;5039118;28;47367;-72
2022/06/08 04:06:05;;;;;;;;;2.00;2.00;;;;;;;;5038418;28;45441;-72
2022/06/08 04:08:31;;;;;;;;;4.00;2.50;;;;;;;;5038540;28;45734;-72
2022/06/08 04:10:57;;;;;;;;;4.00;1.50;;;;;;;;5039449;28;45310;-72
2022/06/08 04:13:22;;;;;;;;;2.25;2.25;;;;;;;;5038757;28;46377;-73
2022/06/08 04:15:47;;;;;;;;;4.50;2.50;;;;;;;;5039202;28;45369;-74
2022/06/08 04:18:14;;;;;;;;;2.50;2.50;;;;;;;;5039312;28;45267;-74
2022/06/08 04:20:40;;;;;;;;;2.33;2.33;;;;;;;;5039486;28;45504;-74
2022/06/08 04:23:06;;;;;;;;;4.00;3.00;;;;;;;;5038197;28;46422;-74
2022/06/08 04:25:31;;;;;;;;;3.50;2.00;;;;;;;;5039052;28;45359;-74
2022/06/08 04:27:57;;;;;;;;;4.00;3.00;;;;;;;;5039154;28;45291;-74
2022/06/08 04:30:23;;;;;;;;;2.00;2.00;;;;;;;;5039313;28;45464;-74
2022/06/08 04:32:48;;;;;;;;;2.25;2.00;;;;;;;;5038670;28;45400;-74
2022/06/08 04:35:15;;;;;;;;;3.00;3.00;;;;;;;;5038893;28;45276;-74
2022/06/08 04:37:40;;;;;;;;;4.25;3.25;;;;;;;;5038871;28;45431;-74
2022/06/08 04:40:10;;;;;;;;;2.75;2.75;;;;;;;;5039039;28;45269;-74
2022/06/08 04:42:35;;;;;;;;;3.50;3.50;;;;;;;;5038638;28;45796;-75
2022/06/08 04:45:01;;;;;;;;;2.00;2.00;;;;;;;;5038820;28;45242;-75
2022/06/08 04:47:27;;;;;;;;;3.00;2.00;;;;;;;;5038853;28;45370;-73
2022/06/08 04:49:52;;;;;;;;;4.33;2.67;;;;;;;;5038161;28;45375;-72
2022/06/08 04:52:17;;;;;;;;;13.00;11.00;;;;;;;;5038005;28;46293;-73
2022/06/08 04:54:43;;;;;;;;;3.00;3.00;;;;;;;;5038433;28;45298;-72
2022/06/08 04:57:08;;;;;;;;;4.67;3.00;;;;;;;;5038057;28;45451;-73
2022/06/08 04:59:33;;;;;;;;;6.00;3.00;;;;;;;;5038498;28;45437;-73
2022/06/08 05:01:58;;;;;;;;;2.50;2.00;;;;;;;;5038352;28;46456;-72
2022/06/08 05:04:24;;;;;;;;;4.00;4.00;;;;;;;;5037576;28;45263;-73
2022/06/08 05:06:49;;;;;;;;;3.75;2.25;;;;;;;;5037669;28;45620;-71
2022/06/08 05:09:14;;;;;;;;;5.75;4.00;;;;;;;;5037323;28;45446;-70
2022/06/08 05:11:40;;;;;;;;;7.50;3.50;;;;;;;;5034332;28;45361;-75
2022/06/08 05:14:05;;;;;;;;;10.33;8.67;;;;;;;;5037494;28;45381;-76
2022/06/08 05:16:30;;;;;;;;;6.00;2.67;;;;;;;;5037554;28;45491;-73
2022/06/08 05:18:55;;;;;;;;;4.75;2.00;;;;;;;;5038251;28;45350;-71
2022/06/08 05:21:21;;;;;;;;;3.00;3.00;;;;;;;;5038370;28;45535;-72
2022/06/08 05:23:46;;;;;;;;;2.75;2.75;;;;;;;;5037751;28;45409;-72
2022/06/08 05:26:12;;;;;;;;;6.00;5.00;;;;;;;;5038192;28;45350;-72
2022/06/08 05:28:38;;;;;;;;;2.50;2.00;;;;;;;;5037940;28;45414;-71
2022/06/08 05:31:03;;;;;;;;;4.50;3.00;;;;;;;;5037822;28;45733;-72
2022/06/08 05:33:29;;;;;;;;;2.25;2.25;;;;;;;;5038128;28;45295;-72
2022/06/08 05:35:54;;;;;;;;;3.25;3.00;;;;;;;;5037757;28;45658;-72
2022/06/08 05:38:20;;;;;;;;;4.00;2.75;;;;;;;;5038184;28;45502;-72
2022/06/08 05:40:45;;;;;;;;;3.25;2.50;;;;;;;;5037733;28;45488;-72
2022/06/08 05:43:12;;;;;;;;;5.00;3.75;;;;;;;;5037832;28;45360;-72
2022/06/08 05:45:39;;;;;;;;;2.00;2.00;;;;;;;;5037881;28;45271;-72
2022/06/08 05:48:05;;;;;;;;;4.50;1.50;;;;;;;;5038046;28;45495;-71
2022/06/08 05:50:30;;;;;;;;;4.50;1.75;;;;;;;;5037900;28;45469;-71
2022/06/08 05:52:55;;;;;;;;;3.00;3.00;;;;;;;;5036358;28;45554;-72
2022/06/08 05:55:21;;;;;;;;;3.00;3.00;;;;;;;;5037594;28;45266;-72
2022/06/08 05:57:47;;;;;;;;;3.00;2.00;;;;;;;;5037712;28;45480;-72
2022/06/08 06:00:14;;;;;;;;;3.67;2.00;;;;;;;;5037541;28;46743;-71
2022/06/08 06:02:40;;;;;;;;;3.33;3.33;;;;;;;;5037839;28;45418;-71
2022/06/08 06:05:06;;;;;;;;;4.50;3.00;;;;;;;;5037641;28;45418;-71
2022/06/08 06:07:33;;;;;;;;;2.50;2.00;;;;;;;;5037557;28;45231;-71
2022/06/08 06:10:02;;;;;;;;;4.00;2.00;;;;;;;;5037461;28;45574;-71
2022/06/08 06:12:27;;;;;;;;;2.75;2.75;;;;;;;;5037364;28;45398;-71
2022/06/08 06:14:53;;;;;;;;;2.33;2.33;;;;;;;;5037411;28;45404;-71
2022/06/08 06:17:18;;;;;;;;;2.00;2.00;;;;;;;;5036698;28;45373;-72
2022/06/08 06:19:43;;;;;;;;;2.00;2.00;;;;;;;;5037107;28;45452;-71
2022/06/08 06:22:08;;;;;;;;;6.25;3.25;;;;;;;;5037440;28;45413;-72
2022/06/08 06:24:34;;;;;;;;;2.67;2.00;;;;;;;;5037168;28;45496;-71
2022/06/08 06:26:59;;;;;;;;;11.00;9.67;;;;;;;;5037511;28;45364;-71
2022/06/08 06:29:24;;;;;;;;;3.00;3.00;;;;;;;;5037137;28;46469;-71
2022/06/08 06:31:55;;;;;;;;;3.00;3.00;;;;;;;;5035482;28;45493;-70
2022/06/08 06:34:21;;;;;;;;;2.00;2.00;;;;;;;;5032490;28;45218;-70
2022/06/08 06:36:47;;;;;;;;;2.00;2.00;;;;;;;;5042606;28;45442;-71
2022/06/08 06:39:12;;;;;;;;;1.00;1.00;;;;;;;;5036231;28;46316;-70
2022/06/08 06:41:38;;;;;;;;;6.33;3.00;;;;;;;;5036916;28;45365;-71
2022/06/08 06:44:04;;;;;;;;;3.00;3.00;;;;;;;;5035185;28;45508;-71
2022/06/08 06:46:29;;;;;;;;;3.33;2.67;;;;;;;;5039368;28;45498;-70
2022/06/08 06:48:54;;;;;;;;;4.67;2.00;;;;;;;;5036736;28;45291;-71
2022/06/08 06:51:19;;;;;;;;;12.67;10.33;;;;;;;;5036588;28;45592;-71
2022/06/08 06:53:45;;;;;;;;;1.50;1.50;;;;;;;;5036392;28;45460;-71
2022/06/08 06:56:10;;;;;;;;;11.00;9.33;;;;;;;;5036523;28;45255;-71
2022/06/08 06:58:35;;;;;;;;;2.00;2.00;;;;;;;;5036038;28;45431;-71
2022/06/08 07:01:02;;;;;;;;;4.00;4.00;;;;;;;;5036104;28;45333;-70
2022/06/08 07:03:27;;;;;;;;;4.00;3.00;;;;;;;;5036618;28;45223;-72
2022/06/08 07:05:53;;;;;;;;;3.00;3.00;;;;;;;;5036002;28;45560;-70
2022/06/08 07:08:18;;;;;;;;;2.00;1.00;;;;;;;;5036220;28;45635;-71
2022/06/08 07:11:32;;;;;;;;;4.00;2.25;;;;;;;;5040498;28;45390;-71
2022/06/08 07:13:28;;;;;;;;;2.25;2.00;;;;;;;;5036295;28;45223;-71
2022/06/08 07:15:53;;;;;;;;;8.33;3.33;;;;;;;;5035725;28;45436;-71
2022/06/08 07:18:19;;;;;;;;;4.50;2.25;;;;;;;;5035514;28;45777;-71
2022/06/08 07:20:44;;;;;;;;;3.00;3.00;;;;;;;;5043508;28;45435;-72
2022/06/08 07:23:09;;;;;;;;;5.75;2.25;;;;;;;;5036075;28;45931;-71
2022/06/08 07:25:34;;;;;;;;;4.00;2.00;;;;;;;;5043747;28;45420;-70
2022/06/08 07:27:59;;;;;;;;;2.00;1.25;;;;;;;;5040299;28;46520;-72
2022/06/08 07:30:25;;;;;;;;;2.50;1.00;;;;;;;;5039703;28;45303;-71
2022/06/08 07:32:50;;;;;;;;;3.00;3.00;;;;;;;;5049326;28;45241;-71
2022/06/08 07:35:15;;;;;;;;;3.50;2.75;;;;;;;;5060331;28;45513;-71
2022/06/08 07:37:40;;;;;;;;;43.67;37.00;;;;;;;;5059735;28;45454;-71
2022/06/08 07:40:06;;;;;;;;;3.67;3.67;;;;;;;;5059415;28;45381;-71
2022/06/08 07:42:31;;;;;;;;;2.25;2.00;;;;;;;;5059556;28;45337;-71
2022/06/08 07:44:57;;;;;;;;;2.75;1.00;;;;;;;;5059699;28;45320;-71
2022/06/08 07:47:22;;;;;;;;;1.50;1.50;;;;;;;;5059438;28;45454;-71
2022/06/08 07:49:51;;;;;;;;;1.25;1.25;;;;;;;;5059721;28;45445;-71
2022/06/08 07:52:18;;;;;;;;;3.75;2.25;;;;;;;;5059584;28;45251;-71
2022/06/08 07:54:44;;;;;;;;;2.00;1.00;;;;;;;;5059958;28;45212;-70
2022/06/08 07:57:13;;;;;;;;;1.75;1.75;;;;;;;;5058852;28;46155;-71
2022/06/08 07:59:38;;;;;;;;;5.25;3.00;;;;;;;;5059376;28;45483;-71
2022/06/08 08:02:05;;;;;;;;;2.25;2.00;;;;;;;;5059736;28;45832;-71
2022/06/08 08:04:30;;;;;;;;;3.00;2.00;;;;;;;;5059532;28;45517;-71
2022/06/08 08:06:55;;;;;;;;;1.25;1.25;;;;;;;;5059354;28;46032;-72
2022/06/08 08:09:22;;;;;;;;;1.00;1.00;;;;;;;;5058982;28;45792;-72
2022/06/08 08:11:51;;;;;;;;;2.00;1.00;;;;;;;;5059440;28;45361;-71
2022/06/08 08:14:17;;;;;;;;;3.00;2.00;;;;;;;;5059191;28;45405;-71
2022/06/08 08:16:43;;;;;;;;;2.25;2.00;;;;;;;;5059077;28;46492;-71
2022/06/08 08:19:09;;;;;;;;;3.00;3.00;;;;;;;;5059325;28;45337;-71
2022/06/08 08:21:34;;;;;;;;;1.50;1.00;;;;;;;;5059418;28;45319;-71
2022/06/08 08:23:59;;;;;;;;;25.67;22.33;;;;;;;;5059340;28;45149;-70
2022/06/08 08:26:28;;;;;;;;;3.25;2.00;;;;;;;;5059361;28;46242;-71
2022/06/08 08:28:54;;;;;;;;;1.75;1.00;;;;;;;;5059107;28;45407;-71
2022/06/08 08:31:19;;;;;;;;;0.00;0.00;;;;;;;;5059262;28;45314;-71
2022/06/08 08:33:44;;;;;;;;;1.00;1.00;;;;;;;;5059356;28;45405;-72
2022/06/08 08:36:10;;;;;;;;;2.00;1.00;;;;;;;;5058478;28;47568;-72
2022/06/08 08:38:35;;;;;;;;;4.00;1.00;;;;;;;;5058128;28;45500;-71
2022/06/08 08:41:01;;;;;;;;;1.75;1.75;;;;;;;;5058922;28;45392;-72
2022/06/08 08:43:29;;;;;;;;;1.75;0.50;;;;;;;;5059357;28;45502;-71
2022/06/08 08:46:00;;;;;;;;;3.50;3.00;;;;;;;;5058840;28;46562;-71
2022/06/08 08:48:27;;;;;;;;;4.67;3.33;;;;;;;;5058768;28;45233;-72
2022/06/08 08:50:52;;;;;;;;;1.75;1.00;;;;;;;;5058834;28;45326;-71
2022/06/08 08:53:17;;;;;;;;;1.50;1.00;;;;;;;;5059137;28;45361;-71
2022/06/08 08:55:50;;;;;;;;;2.00;0.00;;;;;;;;5058413;28;46635;-71
2022/06/08 08:58:18;;;;;;;;;1.00;1.00;;;;;;;;5058524;28;45409;-72
2022/06/08 09:00:47;;;;;;;;;0.75;0.75;;;;;;;;5058962;28;45373;-71
2022/06/08 09:03:24;;;;;;;;;1.00;1.00;;;;;;;;5058886;28;45463;-71
2022/06/08 09:05:51;;;;;;;;;1.00;1.00;;;;;;;;5058492;28;45408;-71
2022/06/08 09:08:17;;;;;;;;;0.75;0.75;;;;;;;;5058656;28;45429;-71
2022/06/08 09:10:44;;;;;;;;;2.00;0.00;;;;;;;;5058368;28;45392;-71
2022/06/08 09:13:14;;;;;;;;;0.50;0.00;;;;;;;;5058798;28;45353;-71
2022/06/08 09:15:42;;;;;;;;;0.00;0.00;;;;;;;;5058533;28;45749;-71
2022/06/08 09:18:16;;;;;;;;;1.00;1.00;;;;;;;;5058394;28;45475;-71
2022/06/08 09:20:42;;;;;;;;;0.00;0.00;;;;;;;;5058389;28;45388;-71
2022/06/08 09:23:22;;;;;;;;;0.50;0.50;;;;;;;;5058737;28;45460;-71
2022/06/08 09:26:00;;;;;;;;;0.00;0.00;;;;;;;;5058105;28;47351;-71
2022/06/08 09:28:27;;;;;;;;;1.00;1.00;;;;;;;;5057914;28;45459;-70
2022/06/08 09:30:53;;;;;;;;;2.33;2.33;;;;;;;;5058391;28;45338;-71
2022/06/08 09:33:26;;;;;;;;;1.75;0.00;;;;;;;;5058329;28;45587;-71
2022/06/08 09:35:55;;;;;;;;;0.00;0.00;;;;;;;;5058012;28;45599;-72
2022/06/08 09:38:23;;;;;;;;;1.00;1.00;;;;;;;;5057709;28;45398;-71
2022/06/08 09:41:07;;;;;;;;;0.50;0.00;;;;;;;;5057929;28;45278;-72
2022/06/08 09:43:32;;;;;;;;;0.00;0.00;;;;;;;;5058274;28;45250;-71
2022/06/08 09:46:03;;;;;;;;;0.00;0.00;;;;;;;;5057650;28;47040;-70
2022/06/08 09:51:28;;;;;;;;;0.00;0.00;;;;;;;;5057974;28;45417;-71
2022/06/08 09:53:53;;;;;;;;;0.00;0.00;;;;;;;;5057797;28;45221;-71
2022/06/08 09:56:18;;;;;;;;;0.25;0.25;;;;;;;;5057282;28;46436;-72
2022/06/08 09:58:50;;;;;;;;;0.00;0.00;;;;;;;;5057819;28;45294;-71
2022/06/08 10:01:18;;;;;;;;;0.00;0.00;;;;;;;;5057792;28;45369;-71
2022/06/08 10:03:57;;;;;;;;;4.33;4.33;;;;;;;;5057824;28;45466;-71
2022/06/08 10:06:45;;;;;;;;;0.00;0.00;;;;;;;;5057474;28;47138;-71
2022/06/08 10:09:10;;;;;;;;;2.50;0.00;;;;;;;;5057424;28;45582;-71
2022/06/08 10:11:39;;;;;;;;;2.50;1.75;;;;;;;;5057696;28;45332;-71
2022/06/08 10:14:12;;;;;;;;;1.33;1.33;;;;;;;;5057896;28;45444;-71
2022/06/08 10:16:40;;;;;;;;;1.00;1.00;;;;;;;;5057428;28;47192;-71
2022/06/08 10:19:09;;;;;;;;;3.50;1.50;;;;;;;;5057498;28;45199;-71
2022/06/08 10:21:38;;;;;;;;;1.25;1.25;;;;;;;;5057450;28;45408;-71
2022/06/08 10:24:09;;;;;;;;;6.25;2.00;;;;;;;;5057490;28;45199;-72
2022/06/08 10:26:38;;;;;;;;;1.00;1.00;;;;;;;;5057152;28;47582;-72
2022/06/08 10:29:10;;;;;;;;;2.75;2.00;;;;;;;;5057161;28;45377;-72
2022/06/08 10:31:35;;;;;;;;;4.67;3.00;;;;;;;;5057515;28;45341;-72
2022/06/08 10:34:18;;;;;;;;;7.67;7.67;;;;;;;;5057365;28;45441;-72
2022/06/08 10:36:46;;;;;;;;;7.75;2.00;;;;;;;;5057097;28;46955;-71
2022/06/08 10:39:13;;;;;;;;;2.00;2.00;;;;;;;;5057109;28;45347;-72
2022/06/08 10:44:36;;;;;;;;;2.50;1.50;;;;;;;;5057472;28;45731;-72
2022/06/08 10:47:13;;;;;;;;;7.00;3.67;;;;;;;;5056998;28;47084;-72
2022/06/08 10:49:38;;;;;;;;;4.00;4.00;;;;;;;;5057092;28;45379;-72
2022/06/08 10:52:19;;;;;;;;;3.00;3.00;;;;;;;;5057429;28;45402;-72
2022/06/08 10:54:55;;;;;;;;;2.50;2.50;;;;;;;;5057223;28;45176;-72
2022/06/08 10:57:36;;;;;;;;;4.67;2.67;;;;;;;;5055793;28;45491;-72
2022/06/08 11:00:19;;;;;;;;;2.25;2.00;;;;;;;;5056941;28;45428;-72
2022/06/08 11:03:00;;;;;;;;;3.25;2.00;;;;;;;;5058473;28;45432;-72
2022/06/08 11:05:37;;;;;;;;;4.00;4.00;;;;;;;;5060472;28;45377;-72
2022/06/08 11:08:02;;;;;;;;;5.33;4.00;;;;;;;;5059557;28;45561;-72
2022/06/08 11:10:49;;;;;;;;;6.67;2.00;;;;;;;;5059922;28;45412;-72
2022/06/08 11:13:20;;;;;;;;;2.25;2.25;;;;;;;;5060500;28;45422;-73
2022/06/08 11:15:49;;;;;;;;;5.33;2.00;;;;;;;;5042227;28;45626;-72
2022/06/08 11:18:33;;;;;;;;;3.50;2.50;;;;;;;;5059795;28;46986;-73
2022/06/08 11:21:01;;;;;;;;;4.00;2.50;;;;;;;;5060177;28;45343;-73
2022/06/08 11:23:44;;;;;;;;;4.50;2.00;;;;;;;;5060077;28;45376;-72
2022/06/08 11:26:23;;;;;;;;;5.00;5.00;;;;;;;;5059907;28;45574;-71
2022/06/08 11:28:50;;;;;;;;;6.00;3.00;;;;;;;;5059834;28;45259;-71
2022/06/08 11:31:28;;;;;;;;;3.50;3.00;;;;;;;;5059847;28;45235;-71
2022/06/08 11:33:53;;;;;;;;;0.33;0.33;;;;;;;;5060030;28;45456;-71
2022/06/08 11:36:33;;;;;;;;;3.00;1.50;;;;;;;;5060093;28;45549;-70
2022/06/08 11:39:02;;;;;;;;;4.00;1.75;;;;;;;;5059353;28;46704;-71
2022/06/08 11:41:35;;;;;;;;;1.00;1.00;;;;;;;;5059760;28;45367;-71
2022/06/08 11:44:03;;;;;;;;;3.00;2.50;;;;;;;;5059988;28;45334;-70
2022/06/08 11:46:32;;;;;;;;;3.75;1.00;;;;;;;;5059930;28;45295;-70
2022/06/08 11:48:57;;;;;;;;;6.67;2.00;;;;;;;;5059601;28;45694;-70
2022/06/08 11:51:34;;;;;;;;;2.00;2.00;;;;;;;;5059679;28;45291;-70
2022/06/08 11:54:13;;;;;;;;;2.50;1.00;;;;;;;;5059746;28;45264;-70
2022/06/08 11:56:59;;;;;;;;;9.00;5.00;;;;;;;;5059443;28;45330;-70
2022/06/08 11:59:24;;;;;;;;;2.75;2.50;;;;;;;;5051678;28;46567;-69
2022/06/08 12:02:01;;;;;;;;;3.67;2.00;;;;;;;;5059537;28;45341;-70
2022/06/08 12:04:29;;;;;;;;;10.67;2.33;;;;;;;;5059581;28;45248;-71
2022/06/08 12:06:56;;;;;;;;;4.67;3.00;;;;;;;;5059551;28;45328;-72
2022/06/08 12:09:24;;;;;;;;;6.00;2.67;;;;;;;;5059146;28;46525;-71
2022/06/08 12:12:01;;;;;;;;;2.00;2.00;;;;;;;;5041334;28;45325;-71
2022/06/08 12:14:31;;;;;;;;;2.00;1.00;;;;;;;;5057885;28;45277;-71
2022/06/08 12:17:11;;;;;;;;;1.00;1.00;;;;;;;;5059560;28;45485;-71
2022/06/08 12:19:45;;;;;;;;;2.00;1.67;;;;;;;;5059115;28;46363;-72
2022/06/08 12:22:19;;;;;;;;;4.33;2.00;;;;;;;;5059060;28;45432;-73
2022/06/08 12:25:04;;;;;;;;;2.50;2.00;;;;;;;;5059042;28;45423;-73
2022/06/08 12:27:29;;;;;;;;;1.00;1.00;;;;;;;;5059298;28;45341;-73
2022/06/08 12:29:56;;;;;;;;;2.50;2.25;;;;;;;;5059084;28;45627;-73
2022/06/08 12:32:26;;;;;;;;;9.67;4.67;;;;;;;;5059101;28;45484;-73
2022/06/08 12:35:08;;;;;;;;;3.67;2.67;;;;;;;;5059277;28;45439;-73
2022/06/08 12:37:37;;;;;;;;;2.00;0.75;;;;;;;;5059137;28;45408;-74
2022/06/08 12:40:17;;;;;;;;;3.67;1.33;;;;;;;;5058564;28;46060;-73
2022/06/08 12:42:46;;;;;;;;;2.00;2.00;;;;;;;;5058780;28;45469;-72
2022/06/08 12:45:24;;;;;;;;;2.75;1.00;;;;;;;;5058810;28;45384;-73
2022/06/08 12:47:50;;;;;;;;;3.33;2.00;;;;;;;;5058951;28;45512;-72
2022/06/08 12:50:19;;;;;;;;;5.00;2.00;;;;;;;;5057192;28;47329;-73
2022/06/08 12:52:46;;;;;;;;;4.33;3.00;;;;;;;;5049929;28;45366;-72
2022/06/08 12:55:16;;;;;;;;;6.67;3.67;;;;;;;;5035174;28;45736;-73
2022/06/08 12:57:44;;;;;;;;;2.67;1.00;;;;;;;;5049096;28;45592;-72
2022/06/08 13:00:36;;;;;;;;;2.67;0.00;;;;;;;;5034056;28;45705;-72
2022/06/08 13:03:09;;;;;;;;;3.75;1.00;;;;;;;;5034440;28;45807;-71
2022/06/08 13:05:38;;;;;;;;;2.00;2.00;;;;;;;;5037083;28;45592;-73
2022/06/08 13:08:04;;;;;;;;;3.33;2.00;;;;;;;;5036466;28;45271;-72
2022/06/08 13:10:30;;;;;;;;;2.00;0.33;;;;;;;;5035196;28;45493;-72
2022/06/08 13:13:03;;;;;;;;;3.25;2.00;;;;;;;;5036379;28;45675;-71
2022/06/08 13:15:37;;;;;;;;;3.00;1.00;;;;;;;;5035470;28;45405;-72
2022/06/08 13:18:03;;;;;;;;;3.00;2.00;;;;;;;;5036159;28;45861;-72
2022/06/08 13:20:30;;;;;;;;;2.00;1.00;;;;;;;;5036208;28;46481;-72
2022/06/08 13:22:55;;;;;;;;;2.00;0.00;;;;;;;;5036167;28;45473;-71
2022/06/08 13:25:23;;;;;;;;;3.75;0.00;;;;;;;;5034902;28;45674;-72
2022/06/08 13:27:50;;;;;;;;;2.00;0.00;;;;;;;;5035201;28;45438;-71
2022/06/08 13:30:17;;;;;;;;;0.00;0.00;;;;;;;;5035280;28;46522;-71
2022/06/08 13:32:43;;;;;;;;;1.00;1.00;;;;;;;;5035403;28;45778;-73
2022/06/08 13:35:09;;;;;;;;;2.67;2.67;;;;;;;;5037643;28;45403;-72
2022/06/08 13:37:39;;;;;;;;;1.33;1.00;;;;;;;;5038228;28;45412;-72
2022/06/08 13:40:12;;;;;;;;;3.50;1.00;;;;;;;;5038042;28;45372;-72
2022/06/08 13:42:40;;;;;;;;;1.50;1.00;;;;;;;;5037406;28;46082;-72
2022/06/08 13:45:05;;;;;;;;;0.75;0.50;;;;;;;;5037714;28;45455;-71
2022/06/08 13:47:36;;;;;;;;;3.00;1.00;;;;;;;;5038146;28;45415;-72
2022/06/08 13:50:04;;;;;;;;;2.75;0.50;;;;;;;;5037636;28;46921;-72
2022/06/08 13:52:31;;;;;;;;;0.00;0.00;;;;;;;;5037846;28;45343;-72
2022/06/08 13:54:57;;;;;;;;;2.33;0.00;;;;;;;;5037857;28;45790;-72
2022/06/08 13:57:25;;;;;;;;;2.67;2.67;;;;;;;;5037238;28;45233;-71
2022/06/08 13:59:52;;;;;;;;;0.00;0.00;;;;;;;;5052715;28;47225;-72
2022/06/08 14:02:35;;;;;;;;;3.67;3.67;;;;;;;;5037333;28;45463;-72
2022/06/08 14:05:02;;;;;;;;;0.00;0.00;;;;;;;;5037622;28;45221;-71
2022/06/08 14:13:07;;;;;;;;;3.00;1.00;;;;;;;;5037276;28;45269;-71
2022/06/08 14:15:32;;;;;;;;;2.25;1.50;;;;;;;;5037564;28;45437;-71
2022/06/08 14:17:58;;;;;;;;;0.75;0.75;;;;;;;;5037460;28;45294;-71
2022/06/08 14:20:37;;;;;;;;;1.75;0.50;;;;;;;;5037440;28;47005;-72
2022/06/08 14:23:03;;;;;;;;;0.00;0.00;;;;;;;;5037368;28;45354;-71
2022/06/08 14:25:29;;;;;;;;;0.00;0.00;;;;;;;;5037189;28;45468;-71
2022/06/08 14:27:56;;;;;;;;;0.00;0.00;;;;;;;;5037554;28;45202;-71
2022/06/08 14:30:24;;;;;;;;;0.00;0.00;;;;;;;;5037322;28;45302;-72
2022/06/08 14:32:51;;;;;;;;;3.50;1.00;;;;;;;;5037171;28;45387;-72
2022/06/08 14:35:20;;;;;;;;;0.00;0.00;;;;;;;;5037220;28;45257;-71
2022/06/08 14:37:46;;;;;;;;;2.00;0.00;;;;;;;;5036265;28;45218;-71
2022/06/08 14:40:20;;;;;;;;;0.00;0.00;;;;;;;;5036896;28;46121;-71
2022/06/08 14:42:46;;;;;;;;;0.00;0.00;;;;;;;;5037117;28;45321;-71
2022/06/08 14:45:11;;;;;;;;;0.25;0.25;;;;;;;;5037301;28;45417;-72
2022/06/08 14:47:39;;;;;;;;;1.00;1.00;;;;;;;;5037297;28;45336;-72
2022/06/08 14:50:08;;;;;;;;;0.00;0.00;;;;;;;;5037190;28;45424;-72
2022/06/08 14:52:33;;;;;;;;;3.00;1.00;;;;;;;;5036984;28;45365;-72
2022/06/08 14:54:59;;;;;;;;;3.00;0.00;;;;;;;;5037135;28;45253;-73
2022/06/08 14:57:31;;;;;;;;;0.00;0.00;;;;;;;;5036539;28;45684;-72
2022/06/08 14:59:58;;;;;;;;;3.33;1.00;;;;;;;;5036755;28;46722;-71
2022/06/08 15:02:31;;;;;;;;;0.00;0.00;;;;;;;;5036984;28;45411;-72
2022/06/08 15:04:56;;;;;;;;;0.00;0.00;;;;;;;;5037211;28;45271;-71